Sargents School, Colorado
Current Conditions -  °F | °C
As of 9:30 AM on Tuesday 21 Oct 2014 (Local Time) from KRCV Reporting Station
Scattered Clouds Scattered Clouds  
Wind Chill: 47°   Ceiling: Unl
Heat Index: 48°   Visibility: 10mi
Dew Point: 36°   Wind: 5mph
Humidity: 63%   Direction: 290°WNW
Pressure: 30.27"   Gusts: NA
Location:  37.5196°N, 106.176°W
Report Text: KRCV 211530Z AUTO 29004KT 10SM SCT055 09/02 A3027 RMK AO2 T00910024
Loading
Personal Weather Stations






























Interactive Weather Map
Tropical Storm Tracking
New forecast layout! Learn more

10-Day Weather Forecast

Advertisements
Track Severe Weather on mobile